sensor_id;sensor_type;location;lat;lon;timestamp;P1;durP1;ratioP1;P2;durP2;ratioP2
21890;SDS011;11110;52.386;16.940;2023-03-22T00:00:12;55.70;;;27.00;;
21890;SDS011;11110;52.386;16.940;2023-03-22T00:03:03;54.47;;;27.20;;
21890;SDS011;11110;52.386;16.940;2023-03-22T00:05:32;56.30;;;27.07;;
21890;SDS011;11110;52.386;16.940;2023-03-22T00:08:01;58.63;;;27.30;;
21890;SDS011;11110;52.386;16.940;2023-03-22T00:10:33;58.67;;;28.47;;
21890;SDS011;11110;52.386;16.940;2023-03-22T00:13:05;55.93;;;27.07;;
21890;SDS011;11110;52.386;16.940;2023-03-22T00:15:36;53.90;;;27.20;;
21890;SDS011;11110;52.386;16.940;2023-03-22T00:18:05;61.43;;;28.57;;
21890;SDS011;11110;52.386;16.940;2023-03-22T00:20:33;56.30;;;27.63;;
21890;SDS011;11110;52.386;16.940;2023-03-22T00:23:05;54.77;;;27.17;;
21890;SDS011;11110;52.386;16.940;2023-03-22T00:25:34;55.10;;;27.27;;
21890;SDS011;11110;52.386;16.940;2023-03-22T00:28:03;56.03;;;25.80;;
21890;SDS011;11110;52.386;16.940;2023-03-22T00:30:32;55.33;;;26.83;;
21890;SDS011;11110;52.386;16.940;2023-03-22T00:33:03;64.57;;;27.30;;
21890;SDS011;11110;52.386;16.940;2023-03-22T00:35:32;52.40;;;25.43;;
21890;SDS011;11110;52.386;16.940;2023-03-22T00:38:01;58.37;;;24.83;;
21890;SDS011;11110;52.386;16.940;2023-03-22T00:40:40;56.33;;;25.70;;
21890;SDS011;11110;52.386;16.940;2023-03-22T00:43:09;59.13;;;26.33;;
21890;SDS011;11110;52.386;16.940;2023-03-22T00:45:38;61.03;;;27.03;;
21890;SDS011;11110;52.386;16.940;2023-03-22T00:48:09;55.23;;;26.13;;
21890;SDS011;11110;52.386;16.940;2023-03-22T00:50:38;54.87;;;28.23;;
21890;SDS011;11110;52.386;16.940;2023-03-22T00:53:07;55.53;;;26.57;;
21890;SDS011;11110;52.386;16.940;2023-03-22T00:55:36;57.70;;;27.57;;
21890;SDS011;11110;52.386;16.940;2023-03-22T00:58:24;58.13;;;26.57;;
21890;SDS011;11110;52.386;16.940;2023-03-22T01:00:53;64.33;;;27.90;;
21890;SDS011;11110;52.386;16.940;2023-03-22T01:03:23;52.30;;;23.23;;
21890;SDS011;11110;52.386;16.940;2023-03-22T01:05:52;52.60;;;24.70;;
21890;SDS011;11110;52.386;16.940;2023-03-22T01:08:22;54.40;;;25.87;;
21890;SDS011;11110;52.386;16.940;2023-03-22T01:10:58;51.20;;;24.77;;
21890;SDS011;11110;52.386;16.940;2023-03-22T01:13:27;54.70;;;26.03;;
21890;SDS011;11110;52.386;16.940;2023-03-22T01:15:56;56.93;;;26.30;;
21890;SDS011;11110;52.386;16.940;2023-03-22T01:18:27;53.83;;;25.63;;
21890;SDS011;11110;52.386;16.940;2023-03-22T01:20:55;53.97;;;27.40;;
21890;SDS011;11110;52.386;16.940;2023-03-22T01:23:25;51.73;;;25.83;;
21890;SDS011;11110;52.386;16.940;2023-03-22T01:25:54;45.33;;;23.90;;
21890;SDS011;11110;52.386;16.940;2023-03-22T01:28:23;53.20;;;25.23;;
21890;SDS011;11110;52.386;16.940;2023-03-22T01:30:53;53.80;;;26.23;;
21890;SDS011;11110;52.386;16.940;2023-03-22T01:33:22;53.03;;;25.23;;
21890;SDS011;11110;52.386;16.940;2023-03-22T01:35:53;49.87;;;25.20;;
21890;SDS011;11110;52.386;16.940;2023-03-22T01:38:22;53.10;;;25.27;;
21890;SDS011;11110;52.386;16.940;2023-03-22T01:40:57;49.83;;;24.33;;
21890;SDS011;11110;52.386;16.940;2023-03-22T01:43:28;49.93;;;24.47;;
21890;SDS011;11110;52.386;16.940;2023-03-22T01:45:58;46.40;;;22.77;;
21890;SDS011;11110;52.386;16.940;2023-03-22T01:48:30;55.27;;;25.70;;
21890;SDS011;11110;52.386;16.940;2023-03-22T01:51:04;48.57;;;24.80;;
21890;SDS011;11110;52.386;16.940;2023-03-22T01:53:57;51.03;;;24.57;;
21890;SDS011;11110;52.386;16.940;2023-03-22T01:56:30;48.57;;;23.17;;
21890;SDS011;11110;52.386;16.940;2023-03-22T01:59:03;51.93;;;24.90;;
21890;SDS011;11110;52.386;16.940;2023-03-22T02:01:49;49.90;;;23.57;;
21890;SDS011;11110;52.386;16.940;2023-03-22T02:04:18;56.20;;;25.23;;
21890;SDS011;11110;52.386;16.940;2023-03-22T02:06:51;51.50;;;24.87;;
21890;SDS011;11110;52.386;16.940;2023-03-22T02:09:23;46.57;;;23.57;;
21890;SDS011;11110;52.386;16.940;2023-03-22T02:11:53;54.53;;;24.43;;
21890;SDS011;11110;52.386;16.940;2023-03-22T02:14:36;50.00;;;24.67;;
21890;SDS011;11110;52.386;16.940;2023-03-22T02:17:32;53.77;;;24.47;;
21890;SDS011;11110;52.386;16.940;2023-03-22T02:29:22;50.13;;;24.50;;
21890;SDS011;11110;52.386;16.940;2023-03-22T02:35:18;49.33;;;24.13;;
21890;SDS011;11110;52.386;16.940;2023-03-22T02:38:18;47.50;;;23.80;;
21890;SDS011;11110;52.386;16.940;2023-03-22T02:40:59;54.17;;;24.43;;
21890;SDS011;11110;52.386;16.940;2023-03-22T02:43:35;51.00;;;24.93;;
21890;SDS011;11110;52.386;16.940;2023-03-22T02:46:13;51.23;;;23.87;;
21890;SDS011;11110;52.386;16.940;2023-03-22T02:48:49;57.17;;;25.37;;
21890;SDS011;11110;52.386;16.940;2023-03-22T02:51:23;51.97;;;25.83;;
21890;SDS011;11110;52.386;16.940;2023-03-22T02:53:56;53.57;;;24.63;;
21890;SDS011;11110;52.386;16.940;2023-03-22T02:56:32;48.93;;;23.40;;
21890;SDS011;11110;52.386;16.940;2023-03-22T02:59:07;53.17;;;26.13;;
21890;SDS011;11110;52.386;16.940;2023-03-22T03:01:39;50.40;;;23.07;;
21890;SDS011;11110;52.386;16.940;2023-03-22T03:04:13;51.57;;;25.93;;
21890;SDS011;11110;52.386;16.940;2023-03-22T03:06:45;51.13;;;24.70;;
21890;SDS011;11110;52.386;16.940;2023-03-22T03:09:16;51.57;;;24.73;;
21890;SDS011;11110;52.386;16.940;2023-03-22T03:11:48;50.87;;;24.53;;
21890;SDS011;11110;52.386;16.940;2023-03-22T03:14:20;47.97;;;24.07;;
21890;SDS011;11110;52.386;16.940;2023-03-22T03:16:54;52.00;;;25.20;;
21890;SDS011;11110;52.386;16.940;2023-03-22T03:19:33;50.90;;;25.07;;
21890;SDS011;11110;52.386;16.940;2023-03-22T03:22:11;49.33;;;24.93;;
21890;SDS011;11110;52.386;16.940;2023-03-22T03:24:55;51.90;;;25.37;;
21890;SDS011;11110;52.386;16.940;2023-03-22T03:27:34;49.83;;;25.53;;
21890;SDS011;11110;52.386;16.940;2023-03-22T03:30:07;51.37;;;25.63;;
21890;SDS011;11110;52.386;16.940;2023-03-22T03:32:42;49.20;;;24.57;;
21890;SDS011;11110;52.386;16.940;2023-03-22T03:35:16;50.50;;;25.17;;
21890;SDS011;11110;52.386;16.940;2023-03-22T03:37:50;55.73;;;27.07;;
21890;SDS011;11110;52.386;16.940;2023-03-22T03:40:25;49.73;;;24.20;;
21890;SDS011;11110;52.386;16.940;2023-03-22T03:42:58;51.53;;;24.93;;
21890;SDS011;11110;52.386;16.940;2023-03-22T03:45:30;56.40;;;25.80;;
21890;SDS011;11110;52.386;16.940;2023-03-22T03:48:01;51.00;;;24.90;;
21890;SDS011;11110;52.386;16.940;2023-03-22T03:50:33;53.03;;;25.77;;
21890;SDS011;11110;52.386;16.940;2023-03-22T03:53:02;50.83;;;24.27;;
21890;SDS011;11110;52.386;16.940;2023-03-22T03:55:31;46.83;;;24.60;;
21890;SDS011;11110;52.386;16.940;2023-03-22T03:58:02;52.63;;;24.87;;
21890;SDS011;11110;52.386;16.940;2023-03-22T04:00:31;51.77;;;24.33;;
21890;SDS011;11110;52.386;16.940;2023-03-22T04:03:28;53.97;;;25.30;;
21890;SDS011;11110;52.386;16.940;2023-03-22T04:06:30;51.37;;;24.97;;
21890;SDS011;11110;52.386;16.940;2023-03-22T04:09:06;51.47;;;23.27;;
21890;SDS011;11110;52.386;16.940;2023-03-22T04:11:40;46.23;;;24.67;;
21890;SDS011;11110;52.386;16.940;2023-03-22T04:14:11;52.57;;;25.10;;
21890;SDS011;11110;52.386;16.940;2023-03-22T04:16:39;47.80;;;23.37;;
21890;SDS011;11110;52.386;16.940;2023-03-22T04:19:11;51.13;;;24.23;;
21890;SDS011;11110;52.386;16.940;2023-03-22T04:21:40;50.80;;;24.63;;
21890;SDS011;11110;52.386;16.940;2023-03-22T04:24:09;46.77;;;23.53;;
21890;SDS011;11110;52.386;16.940;2023-03-22T04:26:41;49.73;;;24.37;;
21890;SDS011;11110;52.386;16.940;2023-03-22T04:29:34;49.97;;;24.43;;
21890;SDS011;11110;52.386;16.940;2023-03-22T04:32:25;57.93;;;25.43;;
21890;SDS011;11110;52.386;16.940;2023-03-22T04:34:55;47.80;;;23.37;;
21890;SDS011;11110;52.386;16.940;2023-03-22T04:37:24;49.93;;;24.43;;
21890;SDS011;11110;52.386;16.940;2023-03-22T04:40:10;51.83;;;24.53;;
21890;SDS011;11110;52.386;16.940;2023-03-22T04:42:55;54.70;;;24.03;;
21890;SDS011;11110;52.386;16.940;2023-03-22T04:45:37;47.33;;;22.83;;
21890;SDS011;11110;52.386;16.940;2023-03-22T04:48:09;46.97;;;23.63;;
21890;SDS011;11110;52.386;16.940;2023-03-22T04:50:38;52.30;;;25.03;;
21890;SDS011;11110;52.386;16.940;2023-03-22T04:53:08;47.77;;;24.10;;
21890;SDS011;11110;52.386;16.940;2023-03-22T04:55:38;47.07;;;23.73;;
21890;SDS011;11110;52.386;16.940;2023-03-22T04:58:07;54.60;;;24.90;;
21890;SDS011;11110;52.386;16.940;2023-03-22T05:00:37;48.50;;;23.20;;
21890;SDS011;11110;52.386;16.940;2023-03-22T05:03:09;49.33;;;23.63;;
21890;SDS011;11110;52.386;16.940;2023-03-22T05:05:47;41.57;;;21.00;;
21890;SDS011;11110;52.386;16.940;2023-03-22T05:08:20;49.73;;;24.63;;
21890;SDS011;11110;52.386;16.940;2023-03-22T05:10:51;55.60;;;24.53;;
21890;SDS011;11110;52.386;16.940;2023-03-22T05:13:21;51.23;;;23.90;;
21890;SDS011;11110;52.386;16.940;2023-03-22T05:15:53;48.63;;;24.13;;
21890;SDS011;11110;52.386;16.940;2023-03-22T05:18:29;51.07;;;23.90;;
21890;SDS011;11110;52.386;16.940;2023-03-22T05:20:58;47.43;;;23.13;;
21890;SDS011;11110;52.386;16.940;2023-03-22T05:23:32;46.80;;;22.57;;
21890;SDS011;11110;52.386;16.940;2023-03-22T05:26:02;44.47;;;23.40;;
21890;SDS011;11110;52.386;16.940;2023-03-22T05:28:31;47.33;;;23.13;;
21890;SDS011;11110;52.386;16.940;2023-03-22T05:31:08;49.40;;;22.70;;
21890;SDS011;11110;52.386;16.940;2023-03-22T05:33:45;50.60;;;23.77;;
21890;SDS011;11110;52.386;16.940;2023-03-22T05:36:17;45.07;;;22.30;;
21890;SDS011;11110;52.386;16.940;2023-03-22T05:39:21;48.80;;;23.43;;
21890;SDS011;11110;52.386;16.940;2023-03-22T05:41:50;48.57;;;23.93;;
21890;SDS011;11110;52.386;16.940;2023-03-22T05:44:20;42.53;;;22.47;;
21890;SDS011;11110;52.386;16.940;2023-03-22T05:47:09;44.33;;;21.37;;
21890;SDS011;11110;52.386;16.940;2023-03-22T05:49:46;42.53;;;21.53;;
21890;SDS011;11110;52.386;16.940;2023-03-22T05:52:15;44.97;;;21.77;;
21890;SDS011;11110;52.386;16.940;2023-03-22T05:55:04;44.50;;;21.10;;
21890;SDS011;11110;52.386;16.940;2023-03-22T05:57:34;39.53;;;20.67;;
21890;SDS011;11110;52.386;16.940;2023-03-22T06:00:06;40.07;;;21.57;;
21890;SDS011;11110;52.386;16.940;2023-03-22T06:02:46;43.60;;;20.53;;
21890;SDS011;11110;52.386;16.940;2023-03-22T06:05:16;37.50;;;19.30;;
21890;SDS011;11110;52.386;16.940;2023-03-22T06:07:48;35.90;;;19.13;;
21890;SDS011;11110;52.386;16.940;2023-03-22T06:10:19;28.70;;;16.80;;
21890;SDS011;11110;52.386;16.940;2023-03-22T06:12:50;37.20;;;18.83;;
21890;SDS011;11110;52.386;16.940;2023-03-22T06:15:26;33.77;;;16.37;;
21890;SDS011;11110;52.386;16.940;2023-03-22T06:17:56;32.63;;;17.73;;
21890;SDS011;11110;52.386;16.940;2023-03-22T06:20:28;41.40;;;18.10;;
21890;SDS011;11110;52.386;16.940;2023-03-22T06:23:01;28.83;;;16.90;;
21890;SDS011;11110;52.386;16.940;2023-03-22T06:25:30;35.73;;;17.73;;
21890;SDS011;11110;52.386;16.940;2023-03-22T06:27:59;34.33;;;16.93;;
21890;SDS011;11110;52.386;16.940;2023-03-22T06:30:29;32.30;;;17.07;;
21890;SDS011;11110;52.386;16.940;2023-03-22T06:33:10;35.20;;;18.20;;
21890;SDS011;11110;52.386;16.940;2023-03-22T06:35:43;37.23;;;18.97;;
21890;SDS011;11110;52.386;16.940;2023-03-22T06:38:18;38.40;;;19.20;;
21890;SDS011;11110;52.386;16.940;2023-03-22T06:40:46;36.37;;;18.73;;
21890;SDS011;11110;52.386;16.940;2023-03-22T06:43:15;34.37;;;17.27;;
21890;SDS011;11110;52.386;16.940;2023-03-22T06:45:47;29.77;;;16.67;;
21890;SDS011;11110;52.386;16.940;2023-03-22T06:48:22;37.37;;;18.50;;
21890;SDS011;11110;52.386;16.940;2023-03-22T06:51:03;39.87;;;18.23;;
21890;SDS011;11110;52.386;16.940;2023-03-22T06:53:33;40.70;;;17.67;;
21890;SDS011;11110;52.386;16.940;2023-03-22T06:56:03;31.60;;;17.00;;
21890;SDS011;11110;52.386;16.940;2023-03-22T06:58:44;33.43;;;16.73;;
21890;SDS011;11110;52.386;16.940;2023-03-22T07:01:13;34.53;;;16.73;;
21890;SDS011;11110;52.386;16.940;2023-03-22T07:03:43;30.20;;;15.47;;
21890;SDS011;11110;52.386;16.940;2023-03-22T07:06:14;32.43;;;15.97;;
21890;SDS011;11110;52.386;16.940;2023-03-22T07:08:47;28.73;;;14.20;;
21890;SDS011;11110;52.386;16.940;2023-03-22T07:11:22;24.07;;;14.13;;
21890;SDS011;11110;52.386;16.940;2023-03-22T07:13:57;32.17;;;15.00;;
21890;SDS011;11110;52.386;16.940;2023-03-22T07:16:36;30.13;;;14.50;;
21890;SDS011;11110;52.386;16.940;2023-03-22T07:19:07;34.17;;;15.47;;
21890;SDS011;11110;52.386;16.940;2023-03-22T07:21:38;33.10;;;15.17;;
21890;SDS011;11110;52.386;16.940;2023-03-22T07:24:09;26.03;;;13.97;;
21890;SDS011;11110;52.386;16.940;2023-03-22T07:26:40;31.93;;;15.30;;
21890;SDS011;11110;52.386;16.940;2023-03-22T07:29:14;30.83;;;15.00;;
21890;SDS011;11110;52.386;16.940;2023-03-22T07:31:43;28.97;;;15.17;;
21890;SDS011;11110;52.386;16.940;2023-03-22T07:34:23;26.73;;;14.63;;
21890;SDS011;11110;52.386;16.940;2023-03-22T07:37:00;27.43;;;15.17;;
21890;SDS011;11110;52.386;16.940;2023-03-22T07:39:30;36.97;;;16.43;;
21890;SDS011;11110;52.386;16.940;2023-03-22T07:41:59;32.70;;;16.40;;
21890;SDS011;11110;52.386;16.940;2023-03-22T07:44:50;32.40;;;15.90;;
21890;SDS011;11110;52.386;16.940;2023-03-22T07:47:19;31.13;;;16.52;;
21890;SDS011;11110;52.386;16.940;2023-03-22T07:50:27;31.73;;;15.73;;
21890;SDS011;11110;52.386;16.940;2023-03-22T07:52:59;29.33;;;16.43;;
21890;SDS011;11110;52.386;16.940;2023-03-22T07:55:29;31.90;;;17.10;;
21890;SDS011;11110;52.386;16.940;2023-03-22T07:57:58;32.03;;;16.67;;
21890;SDS011;11110;52.386;16.940;2023-03-22T08:00:27;29.53;;;16.00;;
21890;SDS011;11110;52.386;16.940;2023-03-22T08:03:25;37.40;;;17.17;;
21890;SDS011;11110;52.386;16.940;2023-03-22T08:06:02;33.70;;;16.07;;
21890;SDS011;11110;52.386;16.940;2023-03-22T08:08:34;31.77;;;15.73;;
21890;SDS011;11110;52.386;16.940;2023-03-22T08:11:04;30.52;;;16.13;;
21890;SDS011;11110;52.386;16.940;2023-03-22T08:13:34;31.83;;;16.20;;
21890;SDS011;11110;52.386;16.940;2023-03-22T08:16:06;31.90;;;17.40;;
21890;SDS011;11110;52.386;16.940;2023-03-22T08:18:35;24.60;;;14.30;;
21890;SDS011;11110;52.386;16.940;2023-03-22T08:21:06;30.35;;;15.27;;
21890;SDS011;11110;52.386;16.940;2023-03-22T08:23:36;24.43;;;14.07;;
21890;SDS011;11110;52.386;16.940;2023-03-22T08:26:26;25.93;;;14.60;;
21890;SDS011;11110;52.386;16.940;2023-03-22T08:29:02;25.00;;;14.97;;
21890;SDS011;11110;52.386;16.940;2023-03-22T08:31:33;24.13;;;13.97;;
21890;SDS011;11110;52.386;16.940;2023-03-22T08:34:02;28.10;;;15.30;;
21890;SDS011;11110;52.386;16.940;2023-03-22T08:36:32;29.05;;;14.68;;
21890;SDS011;11110;52.386;16.940;2023-03-22T08:39:03;27.17;;;14.02;;
21890;SDS011;11110;52.386;16.940;2023-03-22T08:41:41;25.33;;;14.23;;
21890;SDS011;11110;52.386;16.940;2023-03-22T08:44:10;24.67;;;14.27;;
21890;SDS011;11110;52.386;16.940;2023-03-22T08:46:39;31.85;;;15.52;;
21890;SDS011;11110;52.386;16.940;2023-03-22T08:49:08;34.13;;;16.63;;
21890;SDS011;11110;52.386;16.940;2023-03-22T08:51:42;32.90;;;17.30;;
21890;SDS011;11110;52.386;16.940;2023-03-22T08:54:16;32.05;;;16.10;;
21890;SDS011;11110;52.386;16.940;2023-03-22T08:56:50;28.73;;;15.20;;
21890;SDS011;11110;52.386;16.940;2023-03-22T08:59:42;31.85;;;15.35;;
21890;SDS011;11110;52.386;16.940;2023-03-22T09:02:33;24.75;;;13.98;;
21890;SDS011;11110;52.386;16.940;2023-03-22T09:05:03;29.23;;;13.48;;
21890;SDS011;11110;52.386;16.940;2023-03-22T09:07:33;24.15;;;13.18;;
21890;SDS011;11110;52.386;16.940;2023-03-22T09:10:08;28.10;;;13.52;;
21890;SDS011;11110;52.386;16.940;2023-03-22T09:12:41;27.67;;;14.38;;
21890;SDS011;11110;52.386;16.940;2023-03-22T09:15:10;23.17;;;12.50;;
21890;SDS011;11110;52.386;16.940;2023-03-22T09:17:42;23.77;;;13.25;;
21890;SDS011;11110;52.386;16.940;2023-03-22T09:20:11;25.17;;;14.15;;
21890;SDS011;11110;52.386;16.940;2023-03-22T09:22:44;24.17;;;12.25;;
21890;SDS011;11110;52.386;16.940;2023-03-22T09:25:18;32.28;;;14.35;;
21890;SDS011;11110;52.386;16.940;2023-03-22T09:27:48;26.60;;;12.48;;
21890;SDS011;11110;52.386;16.940;2023-03-22T09:30:17;28.05;;;14.65;;
21890;SDS011;11110;52.386;16.940;2023-03-22T09:32:46;27.63;;;13.05;;
21890;SDS011;11110;52.386;16.940;2023-03-22T09:35:16;21.55;;;13.45;;
21890;SDS011;11110;52.386;16.940;2023-03-22T09:37:55;29.27;;;14.70;;
21890;SDS011;11110;52.386;16.940;2023-03-22T09:40:26;26.33;;;15.02;;
21890;SDS011;11110;52.386;16.940;2023-03-22T09:42:58;30.08;;;13.75;;
21890;SDS011;11110;52.386;16.940;2023-03-22T09:45:31;27.75;;;13.70;;
21890;SDS011;11110;52.386;16.940;2023-03-22T09:48:05;24.20;;;12.40;;
21890;SDS011;11110;52.386;16.940;2023-03-22T09:50:43;27.25;;;13.32;;
21890;SDS011;11110;52.386;16.940;2023-03-22T09:53:15;19.80;;;11.80;;
21890;SDS011;11110;52.386;16.940;2023-03-22T09:55:46;22.77;;;11.98;;
21890;SDS011;11110;52.386;16.940;2023-03-22T09:58:21;22.90;;;12.25;;
21890;SDS011;11110;52.386;16.940;2023-03-22T10:00:56;19.55;;;11.55;;
21890;SDS011;11110;52.386;16.940;2023-03-22T10:03:35;20.42;;;11.20;;
21890;SDS011;11110;52.386;16.940;2023-03-22T10:06:20;24.65;;;13.07;;
21890;SDS011;11110;52.386;16.940;2023-03-22T10:08:55;21.38;;;11.20;;
21890;SDS011;11110;52.386;16.940;2023-03-22T10:11:35;22.17;;;11.13;;
21890;SDS011;11110;52.386;16.940;2023-03-22T10:14:20;21.15;;;12.05;;
21890;SDS011;11110;52.386;16.940;2023-03-22T10:16:54;21.75;;;11.48;;
21890;SDS011;11110;52.386;16.940;2023-03-22T10:19:26;21.58;;;11.43;;
21890;SDS011;11110;52.386;16.940;2023-03-22T10:22:01;21.02;;;12.18;;
21890;SDS011;11110;52.386;16.940;2023-03-22T10:24:33;17.85;;;10.38;;
21890;SDS011;11110;52.386;16.940;2023-03-22T10:27:10;21.23;;;10.30;;
21890;SDS011;11110;52.386;16.940;2023-03-22T10:29:43;17.35;;;9.98;;
21890;SDS011;11110;52.386;16.940;2023-03-22T10:32:15;18.30;;;10.52;;
21890;SDS011;11110;52.386;16.940;2023-03-22T10:34:45;23.27;;;10.68;;
21890;SDS011;11110;52.386;16.940;2023-03-22T10:37:15;19.75;;;10.35;;
21890;SDS011;11110;52.386;16.940;2023-03-22T10:39:49;16.92;;;9.50;;
21890;SDS011;11110;52.386;16.940;2023-03-22T10:42:21;17.88;;;9.93;;
21890;SDS011;11110;52.386;16.940;2023-03-22T10:44:52;21.15;;;10.18;;
21890;SDS011;11110;52.386;16.940;2023-03-22T10:47:26;19.70;;;10.35;;
21890;SDS011;11110;52.386;16.940;2023-03-22T10:49:59;21.92;;;10.48;;
21890;SDS011;11110;52.386;16.940;2023-03-22T10:52:37;17.55;;;9.48;;
21890;SDS011;11110;52.386;16.940;2023-03-22T10:55:11;16.48;;;9.27;;
21890;SDS011;11110;52.386;16.940;2023-03-22T10:57:41;20.02;;;10.40;;
21890;SDS011;11110;52.386;16.940;2023-03-22T11:00:18;22.90;;;11.82;;
21890;SDS011;11110;52.386;16.940;2023-03-22T11:02:50;18.73;;;10.48;;
21890;SDS011;11110;52.386;16.940;2023-03-22T11:05:21;19.52;;;9.50;;
21890;SDS011;11110;52.386;16.940;2023-03-22T11:07:52;19.50;;;9.82;;
21890;SDS011;11110;52.386;16.940;2023-03-22T11:10:25;18.58;;;9.35;;
21890;SDS011;11110;52.386;16.940;2023-03-22T11:13:09;15.90;;;8.90;;
21890;SDS011;11110;52.386;16.940;2023-03-22T11:15:42;19.50;;;9.55;;
21890;SDS011;11110;52.386;16.940;2023-03-22T11:18:18;15.05;;;9.10;;
21890;SDS011;11110;52.386;16.940;2023-03-22T11:20:57;14.43;;;9.55;;
21890;SDS011;11110;52.386;16.940;2023-03-22T11:23:27;16.60;;;8.93;;
21890;SDS011;11110;52.386;16.940;2023-03-22T11:26:04;22.95;;;10.25;;
21890;SDS011;11110;52.386;16.940;2023-03-22T11:28:36;16.02;;;8.88;;
21890;SDS011;11110;52.386;16.940;2023-03-22T11:31:12;17.02;;;9.20;;
21890;SDS011;11110;52.386;16.940;2023-03-22T11:33:53;16.65;;;8.60;;
21890;SDS011;11110;52.386;16.940;2023-03-22T11:36:23;15.05;;;8.02;;
21890;SDS011;11110;52.386;16.940;2023-03-22T11:38:55;17.83;;;8.68;;
21890;SDS011;11110;52.386;16.940;2023-03-22T11:41:26;18.63;;;8.80;;
21890;SDS011;11110;52.386;16.940;2023-03-22T11:43:57;18.02;;;8.43;;
21890;SDS011;11110;52.386;16.940;2023-03-22T11:46:30;18.20;;;8.98;;
21890;SDS011;11110;52.386;16.940;2023-03-22T11:49:02;15.90;;;8.45;;
21890;SDS011;11110;52.386;16.940;2023-03-22T11:51:36;19.10;;;9.23;;
21890;SDS011;11110;52.386;16.940;2023-03-22T11:54:07;17.83;;;9.35;;
21890;SDS011;11110;52.386;16.940;2023-03-22T11:56:40;15.45;;;8.55;;
21890;SDS011;11110;52.386;16.940;2023-03-22T11:59:12;20.77;;;9.00;;
21890;SDS011;11110;52.386;16.940;2023-03-22T12:01:43;18.50;;;9.55;;
21890;SDS011;11110;52.386;16.940;2023-03-22T12:04:16;16.02;;;8.70;;
21890;SDS011;11110;52.386;16.940;2023-03-22T12:06:49;15.57;;;8.20;;
21890;SDS011;11110;52.386;16.940;2023-03-22T12:09:24;14.25;;;7.57;;
21890;SDS011;11110;52.386;16.940;2023-03-22T12:12:03;14.65;;;8.23;;
21890;SDS011;11110;52.386;16.940;2023-03-22T12:14:42;12.77;;;7.65;;
21890;SDS011;11110;52.386;16.940;2023-03-22T12:17:15;20.98;;;9.38;;
21890;SDS011;11110;52.386;16.940;2023-03-22T12:19:52;18.70;;;9.27;;
21890;SDS011;11110;52.386;16.940;2023-03-22T12:22:27;16.05;;;7.65;;
21890;SDS011;11110;52.386;16.940;2023-03-22T12:24:59;15.68;;;8.60;;
21890;SDS011;11110;52.386;16.940;2023-03-22T12:27:32;12.23;;;7.80;;
21890;SDS011;11110;52.386;16.940;2023-03-22T12:30:05;15.82;;;8.48;;
21890;SDS011;11110;52.386;16.940;2023-03-22T12:32:39;14.50;;;8.23;;
21890;SDS011;11110;52.386;16.940;2023-03-22T12:35:12;15.05;;;7.78;;
21890;SDS011;11110;52.386;16.940;2023-03-22T12:37:48;16.08;;;7.80;;
21890;SDS011;11110;52.386;16.940;2023-03-22T12:40:22;13.80;;;7.13;;
21890;SDS011;11110;52.386;16.940;2023-03-22T12:42:57;17.50;;;7.60;;
21890;SDS011;11110;52.386;16.940;2023-03-22T12:45:32;14.18;;;7.78;;
21890;SDS011;11110;52.386;16.940;2023-03-22T12:48:08;14.65;;;8.10;;
21890;SDS011;11110;52.386;16.940;2023-03-22T12:50:42;14.65;;;6.95;;
21890;SDS011;11110;52.386;16.940;2023-03-22T12:53:15;14.13;;;7.40;;
21890;SDS011;11110;52.386;16.940;2023-03-22T12:55:45;15.00;;;7.43;;
21890;SDS011;11110;52.386;16.940;2023-03-22T12:58:17;15.45;;;8.32;;
21890;SDS011;11110;52.386;16.940;2023-03-22T13:00:50;14.90;;;7.90;;
21890;SDS011;11110;52.386;16.940;2023-03-22T13:03:25;15.85;;;7.53;;
21890;SDS011;11110;52.386;16.940;2023-03-22T13:06:00;17.77;;;9.15;;
21890;SDS011;11110;52.386;16.940;2023-03-22T13:11:30;12.90;;;7.15;;
21890;SDS011;11110;52.386;16.940;2023-03-22T13:14:00;16.15;;;7.85;;
21890;SDS011;11110;52.386;16.940;2023-03-22T13:16:49;15.88;;;6.70;;
21890;SDS011;11110;52.386;16.940;2023-03-22T13:19:27;18.67;;;7.88;;
21890;SDS011;11110;52.386;16.940;2023-03-22T13:22:13;12.55;;;6.47;;
21890;SDS011;11110;52.386;16.940;2023-03-22T13:27:48;13.98;;;6.65;;
21890;SDS011;11110;52.386;16.940;2023-03-22T13:30:23;16.05;;;7.85;;
21890;SDS011;11110;52.386;16.940;2023-03-22T13:32:56;11.88;;;6.78;;
21890;SDS011;11110;52.386;16.940;2023-03-22T13:35:44;15.15;;;7.47;;
21890;SDS011;11110;52.386;16.940;2023-03-22T13:38:19;13.18;;;6.43;;
21890;SDS011;11110;52.386;16.940;2023-03-22T13:40:51;14.73;;;6.75;;
21890;SDS011;11110;52.386;16.940;2023-03-22T13:43:27;14.02;;;6.35;;
21890;SDS011;11110;52.386;16.940;2023-03-22T13:46:05;22.40;;;7.65;;
21890;SDS011;11110;52.386;16.940;2023-03-22T13:48:39;14.45;;;6.38;;
21890;SDS011;11110;52.386;16.940;2023-03-22T13:51:20;13.88;;;5.93;;
21890;SDS011;11110;52.386;16.940;2023-03-22T13:53:57;9.10;;;5.28;;
21890;SDS011;11110;52.386;16.940;2023-03-22T13:56:32;11.70;;;5.47;;
21890;SDS011;11110;52.386;16.940;2023-03-22T13:59:17;10.73;;;5.57;;
21890;SDS011;11110;52.386;16.940;2023-03-22T14:01:52;9.30;;;5.05;;
21890;SDS011;11110;52.386;16.940;2023-03-22T14:04:27;11.80;;;5.35;;
21890;SDS011;11110;52.386;16.940;2023-03-22T14:07:03;18.95;;;6.82;;
21890;SDS011;11110;52.386;16.940;2023-03-22T14:09:37;11.75;;;5.28;;
21890;SDS011;11110;52.386;16.940;2023-03-22T14:12:13;12.05;;;5.82;;
21890;SDS011;11110;52.386;16.940;2023-03-22T14:14:49;13.75;;;6.43;;
21890;SDS011;11110;52.386;16.940;2023-03-22T14:17:28;10.60;;;5.60;;
21890;SDS011;11110;52.386;16.940;2023-03-22T14:20:01;15.57;;;6.30;;
21890;SDS011;11110;52.386;16.940;2023-03-22T14:22:37;12.85;;;5.93;;
21890;SDS011;11110;52.386;16.940;2023-03-22T14:25:10;13.45;;;5.45;;
21890;SDS011;11110;52.386;16.940;2023-03-22T14:27:44;11.23;;;5.38;;
21890;SDS011;11110;52.386;16.940;2023-03-22T14:30:19;10.00;;;4.88;;
21890;SDS011;11110;52.386;16.940;2023-03-22T14:32:54;14.25;;;5.78;;
21890;SDS011;11110;52.386;16.940;2023-03-22T14:35:27;14.32;;;5.65;;
21890;SDS011;11110;52.386;16.940;2023-03-22T14:38:02;13.35;;;5.28;;
21890;SDS011;11110;52.386;16.940;2023-03-22T14:40:34;15.45;;;5.82;;
21890;SDS011;11110;52.386;16.940;2023-03-22T14:43:12;11.35;;;5.20;;
21890;SDS011;11110;52.386;16.940;2023-03-22T14:45:42;16.42;;;6.25;;
21890;SDS011;11110;52.386;16.940;2023-03-22T14:48:15;16.10;;;6.57;;
21890;SDS011;11110;52.386;16.940;2023-03-22T14:50:46;13.10;;;5.25;;
21890;SDS011;11110;52.386;16.940;2023-03-22T14:53:16;15.27;;;5.40;;
21890;SDS011;11110;52.386;16.940;2023-03-22T14:55:46;11.00;;;4.50;;
21890;SDS011;11110;52.386;16.940;2023-03-22T14:58:15;14.70;;;5.03;;
21890;SDS011;11110;52.386;16.940;2023-03-22T15:00:45;13.45;;;4.93;;
21890;SDS011;11110;52.386;16.940;2023-03-22T15:03:17;14.63;;;4.95;;
21890;SDS011;11110;52.386;16.940;2023-03-22T15:05:49;12.88;;;4.95;;
21890;SDS011;11110;52.386;16.940;2023-03-22T15:08:21;11.50;;;4.47;;
21890;SDS011;11110;52.386;16.940;2023-03-22T15:10:53;10.05;;;3.78;;